Terminal Aerodrome Forecast
Issued by NWS Corpus Christi, TX

Home | Current Version | Previous Version | Text Only | Print | Product List | Glossary On
Versions: 1 2 3 4 5 6 7 8 9 10 11 12
000
FTUS44 KCRP 191731
TAFVCT
TAF
KVCT 191731Z 1918/2018 21007KT P6SM SCT035
     FM192100 15011KT P6SM FEW060
     FM200500 VRB03KT P6SM FEW020
     FM201000 VRB03KT 6SM BR SCT015
      TEMPO 2010/2013 4SM BR BKN015
     FM201400 18008KT P6SM SCT028=

USA.gov is the U.S. government's official web portal to all federal, state and local government web resources and services.